createdAt,value
2018-11-22T12:23:32.008Z,3.80
2018-11-22T17:12:43.996Z,3.80
2018-11-22T17:15:14.618Z,3.90
2018-11-22T17:17:44.820Z,3.90
2018-11-22T17:20:14.674Z,3.90
2018-11-22T17:22:43.769Z,3.90
2018-11-22T17:25:15.252Z,3.90
2018-11-22T17:27:44.301Z,3.90
2018-11-22T17:30:15.150Z,3.80
2018-11-22T17:32:44.042Z,3.90
2018-11-22T17:35:14.594Z,3.80
2018-11-22T17:37:43.424Z,3.80
2018-11-22T17:40:19.818Z,3.80
2018-11-22T17:42:48.284Z,3.60
2018-11-22T17:45:21.465Z,3.60
2018-11-22T17:47:50.193Z,3.80
2018-11-22T17:50:18.886Z,3.80
2018-11-22T17:52:47.422Z,3.90
2018-11-22T17:55:17.887Z,3.90
2018-11-22T17:57:46.332Z,4.00
2018-11-22T18:00:18.462Z,4.00
2018-11-22T18:02:48.150Z,3.90
2018-11-22T18:05:16.685Z,4.00
2018-11-22T18:07:45.868Z,3.90
2018-11-22T18:10:16.457Z,3.90
2018-11-22T18:12:46.597Z,3.80
2018-11-22T18:15:16.298Z,3.80
2018-11-22T18:17:45.353Z,3.80
2018-11-22T18:20:19.011Z,3.80
2018-11-22T18:22:48.276Z,3.90
2018-11-22T18:25:18.314Z,3.70
2018-11-22T18:27:48.020Z,3.60
2018-11-22T18:30:24.416Z,3.70
2018-11-22T18:32:54.840Z,3.70
2018-11-22T18:35:23.258Z,3.80
2018-11-22T18:37:51.745Z,3.90
2018-11-22T18:40:21.980Z,3.80
2018-11-22T18:42:51.417Z,3.80
2018-11-22T18:45:25.393Z,3.90
2018-11-22T18:47:53.994Z,3.90
2018-11-22T18:50:23.824Z,3.90
2018-11-22T18:52:52.381Z,3.90
2018-11-22T18:55:21.186Z,3.80
2018-11-22T18:57:49.724Z,3.80
2018-11-22T19:00:29.058Z,3.70
2018-11-22T19:02:58.899Z,3.70
2018-11-22T19:05:34.176Z,4.00
2018-11-22T19:08:02.735Z,4.00
2018-11-22T19:10:33.590Z,4.10
2018-11-22T19:13:03.632Z,4.20
2018-11-22T19:15:33.414Z,4.10
2018-11-22T19:18:02.038Z,4.00
2018-11-22T19:20:32.633Z,4.00
2018-11-22T19:23:02.036Z,4.00
2018-11-22T19:25:30.496Z,4.10
2018-11-22T19:28:00.948Z,4.10
2018-11-22T19:30:37.046Z,4.00
2018-11-22T19:33:00.770Z,4.10
2018-11-22T19:35:30.819Z,4.10
2018-11-22T19:37:59.330Z,4.00
2018-11-22T19:40:29.182Z,4.00
2018-11-22T19:42:59.007Z,3.90
2018-11-22T19:45:30.049Z,3.90
2018-11-22T19:47:58.667Z,3.90
2018-11-22T19:50:28.122Z,3.90
2018-11-22T19:52:57.773Z,4.00
2018-11-22T19:55:28.698Z,3.80
2018-11-22T19:57:58.704Z,3.80
2018-11-22T20:00:27.905Z,4.00
2018-11-22T20:02:57.672Z,4.10
2018-11-22T20:05:27.164Z,3.90
2018-11-22T20:07:58.372Z,4.00
2018-11-22T20:10:30.600Z,4.20
2018-11-22T20:12:58.517Z,4.10
2018-11-22T20:15:27.010Z,4.10
2018-11-22T20:17:56.132Z,4.10
2018-11-22T20:20:25.258Z,4.10
2018-11-22T20:22:53.999Z,4.10
2018-11-22T20:25:22.436Z,4.00
2018-11-22T20:27:51.961Z,4.00
2018-11-22T20:30:22.054Z,3.90
2018-11-22T20:32:50.619Z,4.00
2018-11-22T20:35:20.043Z,3.90
2018-11-22T20:37:49.362Z,3.80
2018-11-22T20:40:20.312Z,3.90
2018-11-22T20:42:48.945Z,3.90
2018-11-22T20:45:18.807Z,3.80
2018-11-22T20:47:48.408Z,3.90
2018-11-22T20:50:18.319Z,3.90
2018-11-22T20:52:46.922Z,4.00
2018-11-22T20:55:18.083Z,4.00
2018-11-22T20:57:47.856Z,3.90
2018-11-22T21:00:17.782Z,3.90
2018-11-22T21:02:46.663Z,3.80
2018-11-22T21:05:16.796Z,3.80
2018-11-22T21:07:45.570Z,4.00
2018-11-22T21:10:30.161Z,4.00
2018-11-22T21:12:58.669Z,3.90
2018-11-22T21:15:29.370Z,3.90
2018-11-22T21:18:00.398Z,3.90
2018-11-22T21:20:30.719Z,3.90
2018-11-22T21:25:27.978Z,3.90
2018-11-22T21:27:56.557Z,3.70
2018-11-22T21:30:27.839Z,3.80
2018-11-22T21:32:57.210Z,3.90
2018-11-22T21:35:26.419Z,3.90
2018-11-22T21:37:56.028Z,3.90
2018-11-22T21:40:25.342Z,3.90
2018-11-22T21:42:53.978Z,3.90
2018-11-22T21:45:23.817Z,3.90
2018-11-22T21:47:52.428Z,3.90
2018-11-22T21:50:22.422Z,3.90
2018-11-22T21:52:51.022Z,3.90
2018-11-22T21:55:21.838Z,3.90
2018-11-22T21:57:51.037Z,3.90
2018-11-22T22:00:22.397Z,4.00
2018-11-22T22:02:53.033Z,3.90
2018-11-22T22:05:21.645Z,3.80
2018-11-22T22:07:50.190Z,3.80
2018-11-22T22:10:18.748Z,4.00
2018-11-22T22:12:47.302Z,4.00
2018-11-22T22:15:18.100Z,3.90
2018-11-22T22:17:47.374Z,4.00
2018-11-22T22:20:21.118Z,4.00
2018-11-22T22:22:49.665Z,4.10
2018-11-22T22:25:19.607Z,4.10
2018-11-22T22:27:49.804Z,4.00
2018-11-22T22:30:22.746Z,4.10
2018-11-22T22:32:52.420Z,4.10
2018-11-22T22:35:20.967Z,4.20
2018-11-22T22:37:49.617Z,4.00
2018-11-22T22:40:20.214Z,4.00
2018-11-22T22:42:49.735Z,4.20
2018-11-22T22:45:19.333Z,4.10
2018-11-22T22:47:48.446Z,4.20
2018-11-22T22:50:18.332Z,4.20
2018-11-22T22:52:47.649Z,4.30
2018-11-22T22:55:16.215Z,4.20
2018-11-22T22:57:44.921Z,4.10
2018-11-22T23:00:26.528Z,4.10
2018-11-22T23:02:57.341Z,4.10
2018-11-22T23:05:26.734Z,4.10
2018-11-22T23:07:55.448Z,4.00
2018-11-22T23:10:24.615Z,4.00
2018-11-22T23:12:56.102Z,4.00
2018-11-22T23:15:25.570Z,4.00
2018-11-22T23:17:54.017Z,3.90
2018-11-22T23:20:24.646Z,4.10
2018-11-22T23:22:53.494Z,4.10
2018-11-22T23:25:23.102Z,4.10
2018-11-22T23:27:51.550Z,4.00
2018-11-22T23:30:23.126Z,4.10
2018-11-22T23:32:53.865Z,4.10
2018-11-22T23:35:22.680Z,4.10
2018-11-22T23:37:52.039Z,4.00
2018-11-22T23:40:22.889Z,4.00
2018-11-22T23:42:52.376Z,4.00
2018-11-22T23:45:23.073Z,4.00
2018-11-22T23:47:51.621Z,4.00
2018-11-22T23:50:21.445Z,3.90
2018-11-22T23:52:51.063Z,3.90
2018-11-22T23:55:19.622Z,3.80
2018-11-22T23:57:48.103Z,3.80
